NEODyS-2

Near Earth Objects - Dynamic Site
NEODyS ∴ Observatories ∴ Site 691 ∴ Obs & residuals
Contact »
691  ▹ 
OBSERVATIONS AND RESIDUALS

691-Steward Observatory, Kitt Peak-Spacewatch

Detections | Residuals | Detections & Residuals

[1-200] [201-400] [401-600] [601-800] [801-1000] [1001-1200] [1201-1400] [1401-1600] [1601-1800] [1801-2000] [2001-2200] [2201-2400] [2401-2600] [2601-2800] [2801-3000] [3001-3200] [3201-3400] [3401-3600] [3601-3800] [3801-4000] [4001-4200] [4201-4400] [4401-4600] [4601-4800] [4801-5000] [5001-5200] [5201-5400] [5401-5600] [5601-5800] [5801-6000] [6001-6200] [6201-6400] [6401-6600] [6601-6800] [6801-7000] [7001-7200] [7201-7400] [7401-7600] [7601-7800] [7801-8000] [8001-8200] [8201-8400] [8401-8600] [8601-8800] [8801-9000] [9001-9200] [9201-9400] [9401-9600] [9601-9800] [9801-10000] [10001-10200] [10201-10400] [10401-10600] [10601-10800] [10801-11000] [11001-11200] [11201-11400] [11401-11600] [11601-11800] [11801-12000] [12001-12200] [12201-12400] [12401-12600] [12601-12800] [12801-13000] [13001-13200] [13201-13400] [13401-13600] [13601-13800] [13801-14000] [14001-14200] [14201-14400] [14401-14600] [14601-14800] [14801-15000] [15001-15200] [15201-15400] [15401-15600] [15601-15800] [15801-16000] [16001-16200] [16201-16400] [16401-16600] [16601-16800] [16801-17000] [17001-17200] [17201-17400] [17401-17600] [17601-17800] [17801-18000] [18001-18200] [18201-18400] [18401-18600] [18601-18800] [18801-19000] [19001-19200] [19201-19400] [19401-19600] [19601-19800] [19801-20000] [20001-20200] [20201-20400] [20401-20600] [20601-20800] [20801-21000] [21001-21200] [21201-21400] [21401-21600] [21601-21800] [21801-22000] [22001-22200] [22201-22400] [22401-22600] [22601-22800] [22801-23000] [23001-23200] [23201-23400] [23401-23600] [23601-23800] [23801-24000] [24001-24200] [24201-24400] [24401-24600] [24601-24800] [24801-25000] [25001-25200] [25201-25400] [25401-25600] [25601-25800] [25801-26000] [26001-26200] [26201-26400] [26401-26600] [26601-26800] [26801-27000] [27001-27200] [27201-27400] [27401-27600] [27601-27800] [27801-28000] [28001-28200] [28201-28400] [28401-28600] [28601-28800] [28801-29000] [29001-29200] [29201-29400] [29401-29600] [29601-29800] [29801-30000] [30001-30200] [30201-30400] [30401-30600] [30601-30800] [30801-31000] [31001-31200] [31201-31400] [31401-31600] [31601-31800] [31801-32000] [32001-32200] [32201-32400] [32401-32600] [32601-32800] [32801-33000] [33001-33200] [33201-33400] [33401-33600] [33601-33800] [33801-34000] [34001-34200] [34201-34400] [34401-34600] [34601-34800] [34801-35000] [35001-35200] [35201-35400] [35401-35600] [35601-35800] [35801-36000] [36001-36200] [36201-36400] [36401-36600] [36601-36800] [36801-37000] [37001-37200] [37201-37400] [37401-37600] [37601-37800] [37801-38000] [38001-38200] [38201-38400] [38401-38600] [38601-38800] [38801-39000] [39001-39200] [39201-39400] [39401-39600] [39601-39800] [39801-40000] [40001-40200] [40201-40400] [40401-40600] [40601-40800] [40801-41000] [41001-41200] [41201-41400] [41401-41600] [41601-41800] [41801-42000] [42001-42200] [42201-42400] [42401-42600] [42601-42800] [42801-43000] [43001-43200] [43201-43400] [43401-43600] [43601-43800] [43801-44000] [44001-44200] [44201-44400] [44401-44600] [44601-44800] [44801-45000] [45001-45200] [45201-45400] [45401-45600] [45601-45800] [45801-46000] [46001-46200] [46201-46400] [46401-46600] [46601-46800] [46801-47000] [47001-47200] [47201-47400] [47401-47600] [47601-47800] [47801-48000] [48001-48200] [48201-48400] [48401-48600] [48601-48800] [48801-49000] [49001-49200] [49201-49400] [49401-49600] [49601-49800] [49801-50000] [50001-50200] [50201-50388]

Designation T Tech N Date Right Ascension Declination Apparent Magnitude Star Catalog Site code χ Used A Used M
yr-mo-day precision hr:min:sec precision rms F bias residual deg min sec precision rms F bias residual mag/col rms residual
2005JU108 O C 2008-04-15.24255 1.000E-05 13:36:54.090 1.500E-01 0.500 F 0.246 0.232 -04° 55' 01.20" 1.000E-01 0.500 F -0.022 -0.345 20.1 V 0.70 0.01 o 691 0.84 Yes Yes
Anagolay O C H 2008-04-15.24992 1.000E-05 13:58:44.180 1.500E-01 0.500 F 0.172 0.305 -05° 17' 38.30" 1.000E-01 0.500 F 0.056 0.245 20.2 V 0.70 -0.07 o 691 0.79 Yes Yes
2000PM8 O C 2008-04-15.33015 1.000E-05 14:41:04.520 1.500E-01 0.500 F 0.235 -0.124 -07° 31' 19.90" 1.000E-01 0.500 F -0.060 -0.046 19.4 V 0.70 0.26 o 691 0.26 Yes Yes
2008GA4 O C H 2008-04-15.34514 1.000E-05 14:59:53.480 1.500E-01 0.500 F 0.233 0.191 -05° 03' 15.90" 1.000E-01 0.500 F 0.037 0.171 20.2 V 0.70 -0.23 o 691 0.51 Yes Yes
2000PM8 O C 2008-04-15.34775 1.000E-05 14:41:03.450 1.500E-01 0.500 F 0.235 -0.167 -07° 31' 09.10" 1.000E-01 0.500 F -0.060 -0.042 19.4 V 0.70 0.26 o 691 0.34 Yes Yes
2008GA4 O C H 2008-04-15.36275 1.000E-05 14:59:50.680 1.500E-01 0.500 F 0.233 -0.192 -05° 03' 09.30" 1.000E-01 0.500 F 0.037 -0.227 20.1 V 0.70 -0.33 o 691 0.60 Yes Yes
2000PM8 O C 2008-04-15.36536 1.000E-05 14:41:02.390 1.500E-01 0.500 F 0.235 -0.048 -07° 30' 58.30" 1.000E-01 0.500 F -0.060 -0.050 19.7 V 0.70 0.56 o 691 0.14 Yes Yes
2008GZ3 O C t 2008-04-15.38299 1.000E-05 15:04:45.550 1.500E-01 0.500 F 0.104 0.062 -14° 34' 28.40" 1.000E-01 0.500 F 0.036 -0.185 19.6 V 0.70 -0.33 o 691 0.50 Yes Yes
2008GZ3 O C t 2008-04-15.41350 1.000E-05 15:05:06.870 1.500E-01 0.500 F 0.089 -0.204 -14° 36' 55.20" 1.000E-01 0.500 F -0.014 -0.244 19.4 V 0.70 -0.53 o 691 0.78 Yes Yes
2002JN97 O C 2008-04-15.42769 1.000E-05 15:30:19.920 1.500E-01 0.500 F 0.173 -0.356 -13° 16' 29.10" 1.000E-01 0.500 F 0.030 0.194 21.3 V 0.70 -0.31 o 691 0.81 Yes Yes
2001FC7 O C 2008-04-15.43015 1.000E-05 15:38:35.280 1.500E-01 0.500 F 0.095 -0.399 -12° 49' 37.20" 1.000E-01 0.500 F 0.090 0.091 19.0 V 0.70 0.06 o 691 0.82 Yes Yes
2002JN97 O C 2008-04-15.44533 1.000E-05 15:30:18.800 1.500E-01 0.500 F 0.173 -0.267 -13° 16' 25.50" 1.000E-01 0.500 F 0.030 -0.029 21.2 V 0.70 -0.41 o 691 0.54 Yes Yes
2001FC7 O C 2008-04-15.44779 1.000E-05 15:38:34.610 1.500E-01 0.500 F 0.095 -0.253 -12° 49' 33.10" 1.000E-01 0.500 F 0.090 0.119 19.1 V 0.70 0.16 o 691 0.56 Yes Yes
2002JN97 O C 2008-04-15.46297 1.000E-05 15:30:17.690 1.500E-01 0.500 F 0.173 -0.041 -13° 16' 21.60" 1.000E-01 0.500 F 0.030 0.037 21.1 V 0.70 -0.51 o 691 0.11 Yes Yes
2001FC7 O C 2008-04-15.46542 1.000E-05 15:38:33.930 1.500E-01 0.500 F 0.095 -0.299 -12° 49' 29.10" 1.000E-01 0.500 F 0.090 0.012 19.0 V 0.70 0.06 o 691 0.60 Yes Yes
1998KU2 O C 2008-04-24.13926 1.000E-05 13:13:53.730 1.500E-01 0.500 F 0.172 -0.429 -07° 42' 53.90" 1.000E-01 0.500 F 0.086 0.180 18.9 V 0.70 -0.16 o 691 0.93 Yes Yes
1998KU2 O C 2008-04-24.16031 1.000E-05 13:13:52.020 1.500E-01 0.500 F 0.172 -0.490 -07° 42' 40.50" 1.000E-01 0.500 F 0.086 0.111 18.9 V 0.70 -0.16 o 691 1.00 Yes Yes
1998KU2 O C 2008-04-24.18136 1.000E-05 13:13:50.320 1.500E-01 0.500 F 0.172 -0.332 -07° 42' 27.10" 1.000E-01 0.500 F 0.086 0.030 19.0 V 0.70 -0.06 o 691 0.66 Yes Yes
1998KU2 O C 2008-04-26.13760 1.000E-05 13:11:16.390 1.500E-01 0.500 F 0.105 0.286 -07° 21' 27.30" 1.000E-01 0.500 F 0.101 -0.002 20.0 V 0.70 0.91 o 691 0.58 Yes Yes
1998KU2 O C 2008-04-26.15863 1.000E-05 13:11:14.670 1.500E-01 0.500 F 0.105 -0.144 -07° 21' 13.00" 1.000E-01 0.500 F 0.101 0.834 19.5 V 0.70 0.41 o 691 1.69 Yes Yes
1998KU2 O C 2008-04-26.17968 1.000E-05 13:11:12.960 1.500E-01 0.500 F 0.105 -0.335 -07° 21' 00.00" 1.000E-01 0.500 F 0.101 0.346 19.6 V 0.70 0.51 o 691 0.96 Yes Yes
2017KO4 O C 2008-04-26.26180 1.000E-05 14:47:58.300 1.500E-01 0.500 F 0.000 -0.652 -18° 26' 33.20" 1.000E-01 0.500 F 0.069 -0.269 20.9 V 0.70 0.39 o 691 1.45 Yes Yes
2017KO4 O C 2008-04-26.27942 1.000E-05 14:47:56.870 1.500E-01 0.500 F 0.000 -0.357 -18° 26' 37.70" 1.000E-01 0.500 F 0.069 0.323 20.9 V 0.70 0.39 o 691 1.03 Yes Yes
2017KO4 O C 2008-04-26.29703 1.000E-05 14:47:55.420 1.500E-01 0.500 F 0.000 -0.323 -18° 26' 43.10" 1.000E-01 0.500 F 0.069 -0.015 20.6 V 0.70 0.09 o 691 0.68 Yes Yes
2007MR O C H 2008-04-26.44861 1.000E-05 16:08:50.950 1.500E-01 0.500 F 0.062 0.479 -01° 54' 11.60" 1.000E-01 0.500 F 0.081 -0.337 o 691 1.18 Yes No
2007VY7 O C 2008-04-27.20341 1.000E-05 14:51:55.120 1.500E-01 0.500 F 0.204 0.036 +02° 30' 57.70" 1.000E-01 0.500 F 0.147 -0.042 19.7 V 0.70 0.28 o 691 0.11 Yes Yes
2007VY7 O C 2008-04-27.22101 1.000E-05 14:51:52.970 1.500E-01 0.500 F 0.204 -0.192 +02° 30' 53.60" 1.000E-01 0.500 F 0.147 -0.006 19.6 V 0.70 0.18 o 691 0.40 Yes Yes
2007VY7 O C 2008-04-27.23861 1.000E-05 14:51:50.830 1.500E-01 0.500 F 0.204 -0.165 +02° 30' 49.40" 1.000E-01 0.500 F 0.147 -0.057 19.8 V 0.70 0.38 o 691 0.36 Yes Yes
2008HF2 O C 2008-04-27.37530 1.000E-05 16:09:59.760 1.500E-01 0.500 F 0.280 -0.423 -09° 17' 03.90" 1.000E-01 0.500 F 0.138 0.362 20.0 V 0.70 -0.43 o 691 1.12 Yes Yes
2008HF2 O C 2008-04-27.39291 1.000E-05 16:09:58.510 1.500E-01 0.500 F 0.280 -0.887 -09° 16' 35.70" 1.000E-01 0.500 F 0.138 -0.278 20.2 V 0.70 -0.23 o 691 1.87 Yes Yes
2008HF2 O C 2008-04-27.41054 1.000E-05 16:09:57.340 1.500E-01 0.500 F 0.280 -0.130 -09° 16' 06.30" 1.000E-01 0.500 F 0.138 0.204 20.5 V 0.70 0.07 o 691 0.49 Yes Yes
1998KU2 O C 2008-04-28.13541 1.000E-05 13:08:40.830 1.500E-01 0.500 F 0.105 0.058 -07° 00' 02.90" 1.000E-01 0.500 F 0.101 0.789 18.7 V 0.70 -0.42 o 691 1.58 Yes Yes
1998KU2 O C 2008-04-28.15647 1.000E-05 13:08:39.140 1.500E-01 0.500 F 0.105 -0.214 -06° 59' 50.20" 1.000E-01 0.500 F 0.101 0.062 19.0 V 0.70 -0.12 o 691 0.44 Yes Yes
1998KU2 O C 2008-04-28.17752 1.000E-05 13:08:37.450 1.500E-01 0.500 F 0.105 -0.434 -06° 59' 36.80" 1.000E-01 0.500 F 0.101 0.031 18.8 V 0.70 -0.32 o 691 0.87 Yes Yes
2008HD3 O C 2008-04-28.26455 1.000E-05 15:56:03.360 1.500E-01 0.500 F 0.070 -0.190 -12° 27' 52.10" 1.000E-01 0.500 F 0.173 0.271 19.4 V 0.70 0.36 o 691 0.67 Yes Yes
2008HD3 O C 2008-04-28.28219 1.000E-05 15:55:58.450 1.500E-01 0.500 F 0.070 -0.621 -12° 25' 50.90" 1.000E-01 0.500 F 0.173 -0.012 19.1 V 0.70 0.06 o 691 1.26 Yes Yes
2008HD3 O C 2008-04-28.29982 1.000E-05 15:55:53.580 1.500E-01 0.500 F 0.070 -0.377 -12° 23' 49.20" 1.000E-01 0.500 F 0.173 0.226 19.1 V 0.70 0.06 o 691 0.89 Yes Yes
2008GW20 O C H 2008-04-28.37414 1.000E-05 15:47:13.280 1.500E-01 0.500 F 0.084 -0.329 -19° 04' 07.00" 1.000E-01 0.500 F 0.050 0.058 19.7 V 0.70 0.68 o 691 0.71 Yes Yes
2008GW20 O C H 2008-04-28.39176 1.000E-05 15:47:11.750 1.500E-01 0.500 F 0.084 -0.128 -19° 04' 20.00" 1.000E-01 0.500 F 0.050 0.380 19.5 V 0.70 0.48 o 691 0.85 Yes Yes
2008GW20 O C H 2008-04-28.40937 1.000E-05 15:47:10.250 1.500E-01 0.500 F 0.084 0.362 -19° 04' 34.10" 1.000E-01 0.500 F 0.050 -0.640 o 691 1.55 Yes No
2008HY37 O C 2008-04-29.16189 1.000E-05 13:07:49.060 1.500E-01 0.500 F 0.119 -0.437 -09° 08' 19.80" 1.000E-01 0.500 F -0.050 -0.457 21.6 V 0.70 -0.15 o 691 1.27 Yes Yes
2008HY37 O C 2008-04-29.17272 1.000E-05 13:07:47.940 1.500E-01 0.500 F 0.119 -0.092 -09° 08' 21.50" 1.000E-01 0.500 F -0.050 0.053 21.6 V 0.70 -0.15 o 691 0.22 Yes Yes
2008HY37 O C 2008-04-29.18356 1.000E-05 13:07:46.780 1.500E-01 0.500 F 0.119 -0.314 -09° 08' 23.80" 1.000E-01 0.500 F -0.050 -0.039 21.7 V 0.70 -0.05 o 691 0.64 Yes Yes
2007VY7 O C 2008-04-29.20082 1.000E-05 14:48:06.640 1.500E-01 0.500 F 0.216 -0.021 +02° 22' 28.10" 1.000E-01 0.500 F 0.226 -0.048 o 691 0.11 Yes No
2007VY7 O C 2008-04-29.21842 1.000E-05 14:48:04.580 1.500E-01 0.500 F 0.216 -0.137 +02° 22' 23.30" 1.000E-01 0.500 F 0.226 -0.095 o 691 0.34 Yes No
2007VY7 O C 2008-04-29.23602 1.000E-05 14:48:02.520 1.500E-01 0.500 F 0.216 -0.156 +02° 22' 18.40" 1.000E-01 0.500 F 0.226 -0.231 o 691 0.57 Yes No
2008HD3 O C t 2008-04-30.25604 1.000E-05 15:47:11.520 1.500E-01 0.500 F 0.193 0.010 -08° 39' 30.60" 1.000E-01 0.500 F 0.064 0.007 18.7 V 0.70 -0.29 o 691 0.03 Yes Yes
2008HD3 O C t 2008-04-30.27366 1.000E-05 15:47:06.770 1.500E-01 0.500 F 0.193 0.560 -08° 37' 30.80" 1.000E-01 0.500 F 0.064 -0.453 19.0 V 0.70 0.01 o 691 1.46 Yes Yes
2008HD3 O C t 2008-04-30.28882 1.000E-05 15:47:02.620 1.500E-01 0.500 F 0.193 0.193 -08° 35' 47.00" 1.000E-01 0.500 F 0.064 -0.135 19.0 V 0.70 0.01 o 691 0.48 Yes Yes
1998KV2 O C 2008-04-30.36736 1.000E-05 16:19:29.680 1.500E-01 0.500 F 0.060 -0.234 -11° 43' 25.80" 1.000E-01 0.500 F 0.235 -0.197 18.2 V 0.70 -0.01 o 691 0.61 Yes Yes
1998KV2 O C 2008-04-30.38499 1.000E-05 16:19:27.660 1.500E-01 0.500 F 0.060 -0.725 -11° 43' 33.80" 1.000E-01 0.500 F 0.235 0.629 17.8 V 0.70 -0.40 o 691 1.92 Yes Yes
1998KV2 O C 2008-04-30.40263 1.000E-05 16:19:25.710 1.500E-01 0.500 F 0.060 -0.163 -11° 43' 43.20" 1.000E-01 0.500 F 0.235 0.031 18.2 V 0.70 0.00 o 691 0.33 Yes Yes
1998KU2 O C H 2008-05-01.15636 1.000E-05 13:04:50.710 1.500E-01 0.500 F 0.171 -0.245 -06° 28' 01.50" 1.000E-01 0.500 F 0.164 0.066 19.5 V 0.70 0.34 o 691 0.50 Yes Yes
1998KU2 O C H 2008-05-01.17476 1.000E-05 13:04:49.290 1.500E-01 0.500 F 0.171 -0.213 -06° 27' 50.00" 1.000E-01 0.500 F 0.164 0.006 19.7 V 0.70 0.54 o 691 0.42 Yes Yes
2007VY7 O C 2008-05-02.19739 1.000E-05 14:42:42.580 1.500E-01 0.500 F 0.135 -0.284 +02° 07' 37.20" 1.000E-01 0.500 F 0.214 -0.259 19.7 V 0.70 0.11 o 691 0.78 Yes Yes
2007VY7 O C 2008-05-02.21501 1.000E-05 14:42:40.680 1.500E-01 0.500 F 0.135 -0.042 +02° 07' 31.80" 1.000E-01 0.500 F 0.214 -0.028 19.6 V 0.70 0.01 o 691 0.10 Yes Yes
2007VY7 O C 2008-05-02.23265 1.000E-05 14:42:38.750 1.500E-01 0.500 F 0.135 -0.132 +02° 07' 26.20" 1.000E-01 0.500 F 0.214 0.020 19.6 V 0.70 0.01 o 691 0.27 Yes Yes
2007MR O C H 2008-05-02.31825 1.000E-05 15:57:04.710 1.500E-01 0.500 F 0.137 -0.281 +00° 57' 09.80" 1.000E-01 0.500 F 0.104 0.321 20.8 V 0.70 0.12 o 691 0.86 Yes Yes
2007MR O C H 2008-05-02.36201 1.000E-05 15:56:58.280 1.500E-01 0.500 F 0.137 -0.509 +00° 58' 27.00" 1.000E-01 0.500 F 0.104 -0.265 20.8 V 0.70 0.12 o 691 1.16 Yes Yes
2008GW20 O C 2008-05-02.40228 1.000E-05 15:43:10.010 1.500E-01 0.500 F 0.095 1.561 -19° 46' 30.90" 1.000E-01 0.500 F 0.006 0.649 18.9 V 0.70 -0.39 o 691 3.18 No Yes
2008HG O C t 2008-05-02.40981 1.000E-05 15:45:28.380 1.500E-01 0.500 F 0.128 0.550 -19° 10' 12.90" 1.000E-01 0.500 F 0.042 -0.731 o 691 2.04 Yes No
2008GW20 O C 2008-05-02.41739 1.000E-05 15:43:08.740 1.500E-01 0.500 F 0.095 -0.350 -19° 46' 38.40" 1.000E-01 0.500 F 0.006 0.404 19.3 V 0.70 0.01 o 691 1.15 Yes Yes
2008HG O C t 2008-05-02.42838 1.000E-05 15:45:46.550 1.500E-01 0.500 F 0.128 -0.699 -19° 14' 12.80" 1.000E-01 0.500 F 0.042 -0.072 o 691 1.52 Yes No
2008GW20 O C 2008-05-02.43598 1.000E-05 15:43:07.370 1.500E-01 0.500 F 0.095 -0.224 -19° 46' 47.30" 1.000E-01 0.500 F 0.006 0.244 19.4 V 0.70 0.11 o 691 0.71 Yes Yes
2008HD2 O C t 2008-05-03.14173 1.000E-05 12:55:34.090 1.500E-01 0.500 F 0.242 0.981 -07° 38' 30.70" 1.000E-01 0.500 F -0.002 -0.252 19.6 V 0.70 0.02 o 691 2.39 Yes Yes
2008HD2 O C H 2008-05-03.16359 1.000E-05 12:55:14.920 1.500E-01 0.500 F 0.242 -0.962 -07° 38' 42.10" 1.000E-01 0.500 F -0.002 0.344 20.2 V 0.70 0.63 o 691 2.36 Yes Yes
2008HD2 O C t 2008-05-03.17951 1.000E-05 12:55:01.010 1.500E-01 0.500 F 0.242 0.382 -07° 38' 51.20" 1.000E-01 0.500 F -0.002 -0.241 20.1 V 0.70 0.53 o 691 1.03 Yes Yes
2002AF29 O C H 2008-05-03.37424 1.000E-05 15:55:56.050 1.500E-01 0.500 F -0.096 0.235 -16° 22' 45.30" 1.000E-01 0.500 F 0.082 -0.726 21.1 V 0.70 -0.12 o 691 1.57 Yes Yes
2008JV2 O C 2008-05-03.37424 1.000E-05 15:51:40.810 1.500E-01 0.500 F -0.019 -0.369 -16° 40' 26.70" 1.000E-01 0.500 F 0.100 0.045 20.2 V 0.70 0.09 o 691 0.78 Yes Yes
2002AF29 O C H 2008-05-03.39190 1.000E-05 15:55:54.930 1.500E-01 0.500 F -0.096 2.532 -16° 22' 35.60" 1.000E-01 0.500 F 0.082 -0.205 o 691 4.84 No No
2008JV2 O C 2008-05-03.39190 1.000E-05 15:51:44.030 1.500E-01 0.500 F -0.019 -0.475 -16° 41' 43.40" 1.000E-01 0.500 F 0.100 0.855 20.0 V 0.70 -0.11 o 691 2.04 Yes Yes
2002AF29 O C H 2008-05-03.40955 1.000E-05 15:55:53.480 1.500E-01 0.500 F -0.096 0.055 -16° 22' 26.90" 1.000E-01 0.500 F 0.082 -0.701 21.2 V 0.70 -0.02 o 691 1.44 Yes Yes
2008JV2 O C 2008-05-03.40955 1.000E-05 15:51:47.270 1.500E-01 0.500 F -0.072 -0.395 -16° 43' 01.20" 1.000E-01 0.500 F 0.054 0.062 19.9 V 0.70 -0.22 o 691 0.84 Yes Yes
2008GE110 O C H 2008-05-04.14634 1.000E-05 13:07:33.180 1.500E-01 0.500 F 0.213 -1.036 -02° 00' 08.90" 1.000E-01 0.500 F 0.125 0.424 21.2 V 0.70 0.25 o 691 2.30 Yes Yes
2008HB2 O C t 2008-05-04.15415 1.000E-05 13:08:31.740 1.500E-01 0.500 F 0.196 0.783 -07° 35' 18.50" 1.000E-01 0.500 F 0.133 -0.021 20.4 V 0.70 0.31 o 691 1.98 Yes Yes
2008GE110 O C H 2008-05-04.16224 1.000E-05 13:07:34.120 1.500E-01 0.500 F 0.213 0.544 -02° 00' 32.60" 1.000E-01 0.500 F 0.125 0.035 21.2 V 0.70 0.25 o 691 1.12 Yes Yes
2008HB2 O C t 2008-05-04.17005 1.000E-05 13:08:43.200 1.500E-01 0.500 F 0.196 -0.431 -07° 36' 55.30" 1.000E-01 0.500 F 0.133 -0.755 20.6 V 0.70 0.51 o 691 1.91 Yes Yes
2008GE110 O C H 2008-05-04.17814 1.000E-05 13:07:34.920 1.500E-01 0.500 F 0.213 0.145 -02° 00' 56.50" 1.000E-01 0.500 F 0.125 -0.560 21.3 V 0.70 0.35 o 691 1.18 Yes Yes
2008HD3 O C 2008-05-04.20053 1.000E-05 15:30:16.620 1.500E-01 0.500 F 0.021 -0.536 -01° 23' 02.00" 1.000E-01 0.500 F 0.154 1.190 o 691 2.63 Yes No
2008HD3 O C 2008-05-04.21817 1.000E-05 15:30:12.160 1.500E-01 0.500 F 0.021 0.017 -01° 21' 10.80" 1.000E-01 0.500 F 0.154 0.024 o 691 0.06 Yes No
2008HD3 O C 2008-05-04.23584 1.000E-05 15:30:07.560 1.500E-01 0.500 F 0.021 -1.266 -01° 19' 17.10" 1.000E-01 0.500 F 0.154 1.212 o 691 3.48 No No
1998KV2 O C H 2008-05-04.36699 1.000E-05 16:12:02.130 1.500E-01 0.500 F 0.046 -0.067 -12° 17' 05.30" 1.000E-01 0.500 F 0.159 0.064 18.3 V 0.70 0.19 o 691 0.19 Yes Yes
1998KV2 O C t 2008-05-04.38466 1.000E-05 16:12:00.050 1.500E-01 0.500 F 0.046 0.632 -12° 17' 14.70" 1.000E-01 0.500 F 0.159 -0.357 18.3 V 0.70 0.19 o 691 1.45 Yes Yes
1998KV2 O C H 2008-05-04.40232 1.000E-05 16:11:57.860 1.500E-01 0.500 F 0.046 -0.307 -12° 17' 23.40" 1.000E-01 0.500 F 0.159 -0.112 18.6 V 0.70 0.49 o 691 0.66 Yes Yes
1998KU2 O C H 2008-05-05.14991 1.000E-05 13:00:00.260 1.500E-01 0.500 F 0.175 0.876 -05° 46' 48.40" 1.000E-01 0.500 F 0.143 -0.778 o 691 2.35 Yes No
1998KU2 O C H 2008-05-05.16615 1.000E-05 12:59:59.010 1.500E-01 0.500 F 0.175 -0.123 -05° 46' 38.00" 1.000E-01 0.500 F 0.143 -0.195 19.7 V 0.70 0.48 o 691 0.46 Yes Yes
1998KU2 O C H 2008-05-05.18238 1.000E-05 12:59:57.830 1.500E-01 0.500 F 0.175 -0.067 -05° 46' 29.10" 1.000E-01 0.500 F 0.143 -1.111 19.5 V 0.70 0.28 o 691 2.23 Yes Yes
2008GA110 O C 2008-05-05.19522 1.000E-05 14:37:08.520 1.500E-01 0.500 F 0.194 -0.265 -00° 42' 48.60" 1.000E-01 0.500 F 0.187 0.160 19.9 V 0.70 -0.17 o 691 0.64 Yes Yes
2008GA110 O C 2008-05-05.21287 1.000E-05 14:37:10.730 1.500E-01 0.500 F 0.194 -1.093 -00° 42' 46.80" 1.000E-01 0.500 F 0.187 0.324 20.2 V 0.70 0.13 o 691 2.34 Yes Yes
2008GA110 O C 2008-05-05.22799 1.000E-05 14:37:12.750 1.500E-01 0.500 F 0.194 0.259 -00° 42' 46.10" 1.000E-01 0.500 F 0.187 -0.373 20.4 V 0.70 0.33 o 691 0.93 Yes Yes
2007MR O C 2008-05-05.30964 1.000E-05 15:49:57.790 1.500E-01 0.500 F -0.025 -0.613 +02° 25' 43.20" 1.000E-01 0.500 F 0.175 0.178 20.3 V 0.70 -0.29 o 691 1.29 Yes Yes
2007MR O C 2008-05-05.32730 1.000E-05 15:49:54.970 1.500E-01 0.500 F -0.025 -0.381 +02° 26' 14.50" 1.000E-01 0.500 F 0.175 0.191 20.8 V 0.70 0.22 o 691 0.86 Yes Yes
2007MR O C 2008-05-05.34241 1.000E-05 15:49:52.530 1.500E-01 0.500 F -0.025 -0.536 +02° 26' 41.40" 1.000E-01 0.500 F 0.175 0.333 20.9 V 0.70 0.32 o 691 1.28 Yes Yes
2008HZ1 O C H 2008-05-06.16817 1.000E-05 13:07:44.550 1.500E-01 0.500 F 0.038 1.063 -09° 39' 59.10" 1.000E-01 0.500 F 0.029 0.062 o 691 2.18 Yes No
2008HZ1 O C H 2008-05-06.18405 1.000E-05 13:07:41.710 1.500E-01 0.500 F 0.038 -0.154 -09° 40' 04.50" 1.000E-01 0.500 F 0.029 -1.685 o 691 3.31 No No
2000QW7 O C H 2008-05-06.27214 1.000E-05 15:31:20.820 1.500E-01 0.500 F 0.168 0.487 -10° 51' 20.20" 1.000E-01 0.500 F 0.041 -0.487 o 691 1.38 Yes No
2000QW7 O C H 2008-05-06.28982 1.000E-05 15:31:19.310 1.500E-01 0.500 F 0.168 -0.660 -10° 51' 10.70" 1.000E-01 0.500 F 0.041 0.590 21.2 V 0.70 -0.16 o 691 1.77 Yes Yes
2008GW20 O C H 2008-05-06.38766 1.000E-05 15:39:38.990 1.500E-01 0.500 F 0.060 0.134 -20° 14' 56.30" 1.000E-01 0.500 F -0.065 0.091 o 691 0.37 Yes No
2008GW20 O C H 2008-05-06.40882 1.000E-05 15:39:37.610 1.500E-01 0.500 F 0.060 0.204 -20° 15' 03.80" 1.000E-01 0.500 F -0.065 -0.613 o 691 1.48 Yes No
2008HF2 O C 2008-05-06.43902 1.000E-05 15:56:28.420 1.500E-01 0.500 F 0.148 -0.216 -04° 15' 37.40" 1.000E-01 0.500 F 0.258 0.108 20.0 V 0.70 0.31 o 691 0.49 Yes Yes
2008HF2 O C 2008-05-06.45669 1.000E-05 15:56:26.300 1.500E-01 0.500 F 0.148 0.553 -04° 14' 55.40" 1.000E-01 0.500 F 0.258 -0.424 19.9 V 0.70 0.21 o 691 1.41 Yes Yes
2008HF2 O C 2008-05-06.47436 1.000E-05 15:56:24.090 1.500E-01 0.500 F 0.148 -0.103 -04° 14' 12.20" 1.000E-01 0.500 F 0.258 0.202 19.5 V 0.70 -0.19 o 691 0.46 Yes Yes
2008JT19 O C 2008-05-07.19164 1.000E-05 15:21:40.820 1.500E-01 0.500 F 0.051 -0.472 -00° 07' 21.90" 1.000E-01 0.500 F 0.205 0.431 21.0 V 0.70 0.51 o 691 1.30 Yes Yes
2008JT19 O C 2008-05-07.20693 1.000E-05 15:21:39.790 1.500E-01 0.500 F 0.051 0.052 -00° 07' 07.90" 1.000E-01 0.500 F 0.205 -0.136 21.0 V 0.70 0.51 o 691 0.30 Yes Yes
2008JT19 O C 2008-05-07.22222 1.000E-05 15:21:38.700 1.500E-01 0.500 F 0.051 -0.252 -00° 06' 53.40" 1.000E-01 0.500 F 0.205 -0.195 20.7 V 0.70 0.21 o 691 0.65 Yes Yes
1998KU2 O C H 2008-05-08.15171 1.000E-05 12:56:35.240 1.500E-01 0.500 F 0.211 0.015 -05° 17' 05.10" 1.000E-01 0.500 F 0.154 -0.800 o 691 1.60 Yes No
2008HZ1 O C 2008-05-08.15692 1.000E-05 13:02:07.020 1.500E-01 0.500 F 0.156 0.361 -09° 47' 38.80" 1.000E-01 0.500 F -0.022 0.163 o 691 0.81 Yes No
2008HJ3 O C t 2008-05-08.15692 1.000E-05 13:06:05.070 1.500E-01 0.500 F 0.234 -0.035 -08° 33' 24.90" 1.000E-01 0.500 F 0.020 -0.767 21.5 V 0.70 2.43 o 691 1.65 Yes No
2008HR3 O C t 2008-05-08.15953 1.000E-05 13:04:04.410 1.500E-01 0.500 F 0.056 -0.711 -11° 24' 56.20" 1.000E-01 0.500 F 0.088 0.307 18.5 V 0.70 -0.20 o 691 1.67 Yes Yes
1998KU2 O C H 2008-05-08.17631 1.000E-05 12:56:33.540 1.500E-01 0.500 F 0.211 -0.157 -05° 16' 50.20" 1.000E-01 0.500 F 0.154 -0.151 19.2 V 0.70 -0.06 o 691 0.43 Yes Yes
2008HZ1 O C 2008-05-08.18153 1.000E-05 13:02:02.740 1.500E-01 0.500 F 0.156 -0.191 -09° 47' 44.90" 1.000E-01 0.500 F -0.022 -0.058 o 691 0.41 Yes No
2008HJ3 O C t 2008-05-08.18153 1.000E-05 13:06:08.000 1.500E-01 0.500 F 0.234 -0.021 -08° 40' 38.60" 1.000E-01 0.500 F 0.020 -0.372 20.8 V 0.70 1.73 o 691 0.80 Yes Yes
2008HR3 O C t 2008-05-08.18414 1.000E-05 13:03:44.720 1.500E-01 0.500 F 0.056 0.361 -11° 21' 12.80" 1.000E-01 0.500 F 0.088 -0.706 18.4 V 0.70 -0.29 o 691 1.69 Yes Yes
2008HJ3 O C t 2008-05-08.20615 1.000E-05 13:06:10.910 1.500E-01 0.500 F 0.119 0.488 -08° 47' 51.20" 1.000E-01 0.500 F -0.050 -0.112 21.0 V 0.70 1.92 o 691 1.11 Yes Yes
2008HZ1 O C 2008-05-08.20615 1.000E-05 13:01:58.480 1.500E-01 0.500 F 0.156 -0.374 -09° 47' 50.70" 1.000E-01 0.500 F -0.022 -0.007 o 691 0.76 Yes No
2008HR3 O C t 2008-05-08.20876 1.000E-05 13:03:24.620 1.500E-01 0.500 F 0.056 0.708 -11° 17' 23.90" 1.000E-01 0.500 F 0.088 -0.476 18.4 V 0.70 -0.28 o 691 1.81 Yes Yes
2008JW19 O C 2008-05-08.23646 1.000E-05 15:26:02.970 1.500E-01 0.500 F 0.082 0.180 -10° 24' 07.60" 1.000E-01 0.500 F 0.085 0.210 20.6 V 0.70 0.38 o 691 0.58 Yes Yes
2000QW7 O C H 2008-05-08.23894 1.000E-05 15:28:44.600 1.500E-01 0.500 F 0.165 0.389 -10° 35' 32.60" 1.000E-01 0.500 F 0.082 -0.532 o 691 1.32 Yes No
2008JW19 O C 2008-05-08.25416 1.000E-05 15:25:59.650 1.500E-01 0.500 F 0.082 -0.033 -10° 24' 18.50" 1.000E-01 0.500 F 0.085 -0.138 20.3 V 0.70 0.08 o 691 0.30 Yes Yes
2000QW7 O C H 2008-05-08.25663 1.000E-05 15:28:43.080 1.500E-01 0.500 F 0.165 -0.141 -10° 35' 24.10" 1.000E-01 0.500 F 0.082 -0.517 21.4 V 0.70 0.12 o 691 1.07 Yes Yes
2008JW19 O C 2008-05-08.27185 1.000E-05 15:25:56.340 1.500E-01 0.500 F 0.082 0.016 -10° 24' 28.90" 1.000E-01 0.500 F 0.085 -0.018 20.4 V 0.70 0.18 o 691 0.05 Yes Yes
2000QW7 O C H 2008-05-08.27432 1.000E-05 15:28:41.650 1.500E-01 0.500 F 0.165 0.703 -10° 35' 14.80" 1.000E-01 0.500 F 0.082 0.282 20.8 V 0.70 -0.48 o 691 1.52 Yes Yes
2008HF2 O C 2008-05-08.29706 1.000E-05 15:52:38.080 1.500E-01 0.500 F 0.081 -0.214 -02° 58' 15.90" 1.000E-01 0.500 F 0.142 0.120 o 691 0.50 Yes No
2008HF2 O C 2008-05-08.31219 1.000E-05 15:52:36.000 1.500E-01 0.500 F 0.081 -0.217 -02° 57' 36.70" 1.000E-01 0.500 F 0.142 0.040 o 691 0.45 Yes No
2008HF2 O C 2008-05-08.32732 1.000E-05 15:52:33.910 1.500E-01 0.500 F 0.081 -0.317 -02° 56' 57.40" 1.000E-01 0.500 F 0.142 0.028 o 691 0.64 Yes No
1998KV2 O C H 2008-05-08.34771 1.000E-05 16:04:11.910 1.500E-01 0.500 F 0.058 0.356 -12° 51' 00.50" 1.000E-01 0.500 F 0.127 0.090 17.9 V 0.70 -0.12 o 691 0.73 Yes Yes
1998KV2 O C H 2008-05-08.36539 1.000E-05 16:04:09.680 1.500E-01 0.500 F 0.058 0.085 -12° 51' 09.80" 1.000E-01 0.500 F 0.127 -0.160 18.4 V 0.70 0.38 o 691 0.36 Yes Yes
2002AF29 O C H 2008-05-11.32534 1.000E-05 15:46:38.360 1.500E-01 0.500 F -0.040 -0.709 -15° 16' 02.80" 1.000E-01 0.500 F 0.128 -0.716 21.5 V 0.70 0.36 o 691 2.09 Yes Yes
2004OB O C H 2008-05-11.32781 1.000E-05 15:56:43.200 1.500E-01 0.500 F -0.037 0.734 -14° 58' 42.40" 1.000E-01 0.500 F 0.067 0.319 o 691 1.60 Yes No
2004OB O C H 2008-05-11.34550 1.000E-05 15:56:41.650 1.500E-01 0.500 F -0.037 0.210 -14° 58' 38.00" 1.000E-01 0.500 F 0.067 -1.286 o 691 2.61 Yes No
2002AF29 O C H 2008-05-11.36072 1.000E-05 15:46:35.840 1.500E-01 0.500 F -0.040 -0.040 -15° 15' 44.60" 1.000E-01 0.500 F 0.128 0.334 21.4 V 0.70 0.26 o 691 0.69 Yes Yes
2008JS26 O C 2008-05-14.27602 1.000E-05 15:41:37.560 1.500E-01 0.500 F -0.028 -0.100 +00° 44' 44.80" 1.000E-01 0.500 F 0.233 0.019 20.3 V 0.70 -0.49 o 691 0.21 Yes Yes
2008HF2 O C t 2008-05-14.28359 1.000E-05 15:37:08.860 1.500E-01 0.500 F 0.023 0.738 +01° 55' 23.10" 1.000E-01 0.500 F 0.132 -0.397 19.4 V 0.70 0.20 o 691 1.70 Yes Yes
2008JS26 O C 2008-05-14.29373 1.000E-05 15:41:39.680 1.500E-01 0.500 F -0.028 0.267 +00° 44' 17.10" 1.000E-01 0.500 F 0.233 -0.165 20.5 V 0.70 -0.29 o 691 0.66 Yes Yes
2008HF2 O C t 2008-05-14.30130 1.000E-05 15:37:05.530 1.500E-01 0.500 F 0.023 0.888 +01° 56' 21.50" 1.000E-01 0.500 F 0.132 -0.678 19.4 V 0.70 0.20 o 691 2.26 Yes Yes
2008JS26 O C 2008-05-14.30888 1.000E-05 15:41:41.470 1.500E-01 0.500 F -0.028 0.280 +00° 43' 53.40" 1.000E-01 0.500 F 0.233 -0.282 20.4 V 0.70 -0.39 o 691 0.84 Yes Yes
1998KV2 O C 2008-05-14.32900 1.000E-05 15:52:06.390 1.500E-01 0.500 F 0.064 1.918 -13° 41' 55.90" 1.000E-01 0.500 F 0.076 0.299 17.8 V 0.70 -0.09 o 691 3.88 No Yes
1998KV2 O C 2008-05-14.34672 1.000E-05 15:52:04.030 1.500E-01 0.500 F 0.064 0.056 -13° 42' 05.10" 1.000E-01 0.500 F 0.076 0.061 18.2 V 0.70 0.31 o 691 0.17 Yes Yes
1998KV2 O C 2008-05-14.36442 1.000E-05 15:52:01.790 1.500E-01 0.500 F 0.064 -0.114 -13° 42' 14.10" 1.000E-01 0.500 F 0.076 -0.019 18.3 V 0.70 0.41 o 691 0.23 Yes Yes
2008JZ30 O C 2008-05-14.43768 1.000E-05 22:12:36.320 1.500E-01 0.500 F -0.029 -0.511 +15° 19' 41.70" 1.000E-01 0.500 F 0.303 0.019 20.8 V 0.70 -0.27 o 691 1.03 Yes Yes
2001LO7 O C 2008-05-14.44015 1.000E-05 22:17:17.770 1.500E-01 0.500 F -0.064 -0.258 +14° 48' 57.80" 1.000E-01 0.500 F 0.329 -0.003 16.8 V 0.70 -0.06 o 691 0.52 Yes Yes
2008JZ30 O C 2008-05-14.45031 1.000E-05 22:12:38.280 1.500E-01 0.500 F -0.029 -0.181 +15° 19' 45.40" 1.000E-01 0.500 F 0.303 -0.163 20.6 V 0.70 -0.47 o 691 0.49 Yes Yes
2001LO7 O C 2008-05-14.45278 1.000E-05 22:17:20.980 1.500E-01 0.500 F -0.064 -0.279 +14° 49' 29.00" 1.000E-01 0.500 F 0.329 0.066 16.7 V 0.70 -0.16 o 691 0.58 Yes Yes
2008JZ30 O C 2008-05-14.46293 1.000E-05 22:12:40.190 1.500E-01 0.500 F -0.029 -0.516 +15° 19' 49.40" 1.000E-01 0.500 F 0.303 -0.033 20.3 V 0.70 -0.77 o 691 1.04 Yes Yes
2001LO7 O C 2008-05-14.46540 1.000E-05 22:17:24.190 1.500E-01 0.500 F -0.064 -0.247 +14° 50' 00.10" 1.000E-01 0.500 F 0.329 0.058 16.7 V 0.70 -0.16 o 691 0.51 Yes Yes
2004OB O C H 2008-05-15.29358 1.000E-05 15:51:07.070 1.500E-01 0.500 F 0.009 0.872 -14° 36' 07.20" 1.000E-01 0.500 F 0.097 -0.570 o 691 2.09 Yes No
1998KV2 O C 2008-05-15.29358 1.000E-05 15:50:09.720 1.500E-01 0.500 F 0.064 -0.028 -13° 50' 04.40" 1.000E-01 0.500 F 0.076 -0.038 o 691 0.09 Yes No
2004OB O C H 2008-05-15.30892 1.000E-05 15:51:05.660 1.500E-01 0.500 F 0.009 0.151 -14° 36' 02.20" 1.000E-01 0.500 F 0.097 -0.823 o 691 1.68 Yes No
1998KV2 O C 2008-05-15.30892 1.000E-05 15:50:07.790 1.500E-01 0.500 F 0.064 -0.115 -13° 50' 12.10" 1.000E-01 0.500 F 0.076 0.043 o 691 0.25 Yes No
2004OB O C H 2008-05-15.32425 1.000E-05 15:51:04.320 1.500E-01 0.500 F 0.009 0.441 -14° 35' 56.30" 1.000E-01 0.500 F 0.097 -0.186 o 691 0.96 Yes No
1998KV2 O C 2008-05-15.32425 1.000E-05 15:50:05.870 1.500E-01 0.500 F 0.064 -0.068 -13° 50' 19.90" 1.000E-01 0.500 F 0.076 -0.007 o 691 0.14 Yes No
2002AF29 O C H 2008-05-27.27002 1.000E-05 15:29:49.830 1.500E-01 0.500 F 0.174 -0.265 -13° 24' 21.00" 1.000E-01 0.500 F 0.030 -0.049 21.3 V 0.70 -0.30 o 691 0.56 Yes Yes
1998KV2 O C 2008-05-27.28011 1.000E-05 15:27:35.040 1.500E-01 0.500 F 0.118 -0.242 -15° 27' 24.40" 1.000E-01 0.500 F -0.013 1.256 18.2 V 0.70 -0.07 o 691 2.56 Yes Yes
2002AF29 O C H 2008-05-27.28765 1.000E-05 15:29:48.850 1.500E-01 0.500 F 0.174 -0.005 -13° 24' 15.00" 1.000E-01 0.500 F 0.030 -0.119 21.3 V 0.70 -0.30 o 691 0.25 Yes Yes
2004OB O C H 2008-05-27.28765 1.000E-05 15:33:38.190 1.500E-01 0.500 F 0.076 -0.811 -13° 28' 39.20" 1.000E-01 0.500 F 0.061 -0.299 21.3 V 0.70 -0.36 o 691 1.73 Yes Yes
1998KV2 O C 2008-05-27.29774 1.000E-05 15:27:33.180 1.500E-01 0.500 F 0.118 -0.088 -15° 27' 33.50" 1.000E-01 0.500 F -0.013 0.354 19.7 V 0.70 1.43 o 691 0.73 Yes Yes
2002AF29 O C H 2008-05-27.30528 1.000E-05 15:29:47.870 1.500E-01 0.500 F 0.174 0.241 -13° 24' 08.70" 1.000E-01 0.500 F 0.030 0.097 21.4 V 0.70 -0.20 o 691 0.54 Yes Yes
2004OB O C H 2008-05-27.30528 1.000E-05 15:33:36.640 1.500E-01 0.500 F 0.076 -0.586 -13° 28' 33.30" 1.000E-01 0.500 F 0.061 -0.097 21.4 V 0.70 -0.26 o 691 1.19 Yes Yes
1998KV2 O C 2008-05-27.31537 1.000E-05 15:27:31.310 1.500E-01 0.500 F 0.118 -0.109 -15° 27' 42.00" 1.000E-01 0.500 F -0.013 0.018 18.5 V 0.70 0.23 o 691 0.22 Yes Yes
2008KQ O C 2008-05-27.38558 1.000E-05 16:32:33.910 1.500E-01 0.500 F 0.097 0.048 -07° 35' 42.10" 1.000E-01 0.500 F 0.136 -0.082 20.4 V 0.70 -0.06 o 691 0.19 Yes Yes
2008KQ O C 2008-05-27.40317 1.000E-05 16:32:31.850 1.500E-01 0.500 F 0.097 -0.092 -07° 35' 51.40" 1.000E-01 0.500 F 0.136 0.006 20.5 V 0.70 0.04 o 691 0.19 Yes Yes
2008KQ O C 2008-05-27.42076 1.000E-05 16:32:29.810 1.500E-01 0.500 F 0.097 -0.017 -07° 36' 00.90" 1.000E-01 0.500 F 0.136 -0.119 20.6 V 0.70 0.14 o 691 0.25 Yes Yes
2008KZ5 O C 2008-05-29.22802 1.000E-05 16:23:31.010 1.500E-01 0.500 F 0.058 -0.264 +04° 06' 01.40" 1.000E-01 0.500 F 0.188 -0.005 20.1 V 0.70 -0.19 o 691 0.53 Yes Yes
2008KZ5 O C 2008-05-29.24561 1.000E-05 16:23:29.480 1.500E-01 0.500 F 0.058 -0.126 +04° 06' 14.80" 1.000E-01 0.500 F 0.188 0.003 20.2 V 0.70 -0.09 o 691 0.25 Yes Yes
2008KZ5 O C 2008-05-29.26318 1.000E-05 16:23:28.050 1.500E-01 0.500 F 0.058 1.563 +04° 06' 28.10" 1.000E-01 0.500 F 0.188 -0.055 19.7 V 0.70 -0.59 o 691 3.14 Yes Yes
2002LY45 O C 2008-05-29.28334 1.000E-05 15:58:12.350 1.500E-01 0.500 F 0.076 -0.525 -07° 16' 24.90" 1.000E-01 0.500 F 0.136 0.000 21.1 V 0.70 0.26 o 691 1.05 Yes Yes
2002LY45 O C 2008-05-29.29857 1.000E-05 15:58:10.690 1.500E-01 0.500 F 0.076 -0.431 -07° 16' 19.50" 1.000E-01 0.500 F 0.136 -0.360 21.2 V 0.70 0.36 o 691 1.12 Yes Yes
2002LY45 O C 2008-05-29.31379 1.000E-05 15:58:09.050 1.500E-01 0.500 F 0.076 -0.059 -07° 16' 13.00" 1.000E-01 0.500 F 0.136 0.380 21.1 V 0.70 0.26 o 691 0.77 Yes Yes
1998BX7 O C H 2008-05-29.32386 1.000E-05 16:01:15.080 1.500E-01 0.500 F 0.095 -0.797 -08° 26' 37.90" 1.000E-01 0.500 F 0.114 0.243 21.8 V 0.70 -0.20 o 691 1.67 Yes Yes
2008JR26 O C 2008-05-29.33101 1.000E-05 16:12:03.520 1.500E-01 0.500 F 0.109 -0.093 -00° 38' 54.80" 1.000E-01 0.500 F 0.139 -0.109 20.3 V 0.70 1.55 o 691 0.29 Yes Yes
2008JR26 O C 2008-05-29.34859 1.000E-05 16:12:02.090 1.500E-01 0.500 F 0.109 -0.185 -00° 37' 56.50" 1.000E-01 0.500 F 0.139 0.133 19.6 V 0.70 0.85 o 691 0.46 Yes Yes
2008JR26 O C 2008-05-29.36380 1.000E-05 16:12:00.820 1.500E-01 0.500 F 0.109 -0.828 -00° 37' 06.50" 1.000E-01 0.500 F 0.139 -0.095 19.4 V 0.70 0.65 o 691 1.69 Yes Yes
2008HV4 O C 2008-05-30.15682 1.000E-05 14:39:53.690 1.500E-01 0.500 F 0.067 -0.237 -01° 53' 14.90" 1.000E-01 0.500 F 0.097 0.108 20.5 V 0.70 -0.09 o 691 0.53 Yes Yes
2004VW14 O C 2008-05-30.17508 1.000E-05 14:47:58.550 1.500E-01 0.500 F 0.215 -0.065 -08° 08' 51.30" 1.000E-01 0.500 F 0.016 -0.021 19.6 V 0.70 -0.06 o 691 0.14 Yes Yes
2003CJ11 O C H 2008-05-30.17508 1.000E-05 14:45:56.210 1.500E-01 0.500 F 0.175 -0.623 -09° 12' 21.60" 1.000E-01 0.500 F 0.048 0.239 21.4 V 0.70 -0.21 o 691 1.34 Yes Yes
2008HV4 O C 2008-05-30.18055 1.000E-05 14:39:52.810 1.500E-01 0.500 F 0.131 0.004 -01° 52' 47.60" 1.000E-01 0.500 F 0.071 -0.200 20.4 V 0.70 -0.19 o 691 0.40 Yes Yes
2004VW14 O C 2008-05-30.19881 1.000E-05 14:47:58.370 1.500E-01 0.500 F 0.215 -0.176 -08° 09' 10.50" 1.000E-01 0.500 F 0.016 0.169 19.5 V 0.70 -0.17 o 691 0.49 Yes Yes
2008HV4 O C 2008-05-30.20429 1.000E-05 14:39:51.900 1.500E-01 0.500 F 0.131 -0.074 -01° 52' 20.10" 1.000E-01 0.500 F 0.071 -0.323 20.4 V 0.70 -0.20 o 691 0.66 Yes Yes
2004VW14 O C 2008-05-30.22254 1.000E-05 14:47:58.200 1.500E-01 0.500 F 0.215 -0.077 -08° 09' 29.90" 1.000E-01 0.500 F 0.016 0.102 20.4 V 0.70 0.73 o 691 0.26 Yes Yes
2008GA110 O C 2008-05-30.28945 1.000E-05 15:44:14.300 1.500E-01 0.500 F 0.077 0.035 -03° 06' 30.00" 1.000E-01 0.500 F 0.139 0.189 20.0 V 0.70 -0.19 o 691 0.39 Yes Yes
2008GA110 O C 2008-05-30.30702 1.000E-05 15:44:17.000 1.500E-01 0.500 F 0.077 -0.071 -03° 06' 43.20" 1.000E-01 0.500 F 0.139 0.320 20.0 V 0.70 -0.19 o 691 0.67 Yes Yes
2008GA110 O C 2008-05-30.32461 1.000E-05 15:44:19.730 1.500E-01 0.500 F 0.077 0.151 -03° 06' 56.90" 1.000E-01 0.500 F 0.139 -0.048 20.3 V 0.70 0.11 o 691 0.33 Yes Yes
1998KV2 O C 2008-05-30.34995 1.000E-05 15:22:34.280 1.500E-01 0.500 F 0.033 -0.217 -15° 51' 01.60" 1.000E-01 0.500 F 0.021 -0.025 18.6 V 0.70 0.17 o 691 0.44 Yes Yes
1998KV2 O C 2008-05-30.36757 1.000E-05 15:22:32.570 1.500E-01 0.500 F 0.033 -0.132 -15° 51' 09.40" 1.000E-01 0.500 F 0.021 0.038 18.6 V 0.70 0.17 o 691 0.28 Yes Yes
1998KV2 O C 2008-05-30.38520 1.000E-05 15:22:30.860 1.500E-01 0.500 F 0.033 -0.120 -15° 51' 17.20" 1.000E-01 0.500 F 0.021 0.078 18.6 V 0.70 0.17 o 691 0.29 Yes Yes
2008KV28 O C 2008-05-31.21058 1.000E-05 15:48:33.210 1.500E-01 0.500 F 0.070 -0.262 -00° 12' 36.90" 1.000E-01 0.500 F 0.221 0.477 21.0 V 0.70 -0.09 o 691 1.10 Yes Yes
2008KV28 O C 2008-05-31.22818 1.000E-05 15:48:31.490 1.500E-01 0.500 F 0.070 -0.271 -00° 11' 57.40" 1.000E-01 0.500 F 0.221 -0.402 20.7 V 0.70 -0.39 o 691 0.98 Yes Yes
2008KV28 O C 2008-05-31.24580 1.000E-05 15:48:29.800 1.500E-01 0.500 F 0.070 0.250 -00° 11' 17.00" 1.000E-01 0.500 F 0.221 -0.425 20.7 V 0.70 -0.39 o 691 1.00 Yes Yes
2008KP O C 2008-05-31.27385 1.000E-05 15:19:06.450 1.500E-01 0.500 F 0.067 -0.034 -18° 11' 32.50" 1.000E-01 0.500 F -0.163 0.110 20.3 V 0.70 0.15 o 691 0.23 Yes Yes
2008KP O C 2008-05-31.29147 1.000E-05 15:19:01.300 1.500E-01 0.500 F 0.067 -0.215 -18° 11' 40.50" 1.000E-01 0.500 F -0.163 0.195 19.6 V 0.70 -0.55 o 691 0.59 Yes Yes
2008KP O C 2008-05-31.30913 1.000E-05 15:18:56.140 1.500E-01 0.500 F 0.067 -0.401 -18° 11' 48.80" 1.000E-01 0.500 F -0.163 -0.045 19.8 V 0.70 -0.35 o 691 0.82 Yes Yes
2008GA110 O C t 2008-05-31.31704 1.000E-05 15:47:06.350 1.500E-01 0.500 F 0.100 0.642 -03° 19' 45.90" 1.000E-01 0.500 F 0.068 -0.575 20.7 V 0.70 0.49 o 691 1.77 Yes Yes
2008GA110 O C t 2008-05-31.33464 1.000E-05 15:47:09.130 1.500E-01 0.500 F 0.100 1.651 -03° 19' 59.90" 1.000E-01 0.500 F 0.068 -0.786 o 691 3.56 No No
2008GA110 O C t 2008-05-31.35226 1.000E-05 15:47:11.790 1.500E-01 0.500 F 0.100 0.671 -03° 20' 13.50" 1.000E-01 0.500 F 0.068 -0.597 20.4 V 0.70 0.19 o 691 1.85 Yes Yes
2008HV4 O C H 2008-06-01.16662 1.000E-05 14:38:52.520 1.500E-01 0.500 F 0.074 -0.202 -01° 16' 02.30" 1.000E-01 0.500 F 0.128 -0.101 21.2 V 0.70 0.50 o 691 0.46 Yes Yes
2008LA O C 2008-06-01.16922 1.000E-05 14:36:01.150 1.500E-01 0.500 F 0.099 -0.131 -03° 17' 08.80" 1.000E-01 0.500 F 0.060 0.247 20.9 V 0.70 0.01 o 691 0.56 Yes Yes
2003CJ11 O C H 2008-06-01.18491 1.000E-05 14:44:22.620 1.500E-01 0.500 F 0.169 -0.748 -09° 09' 32.90" 1.000E-01 0.500 F 0.017 0.440 21.4 V 0.70 -0.25 o 691 1.74 Yes Yes
2004VW14 O C 2008-06-01.18491 1.000E-05 14:48:00.500 1.500E-01 0.500 F 0.173 -0.233 -08° 35' 30.40" 1.000E-01 0.500 F 0.104 -0.125 19.7 V 0.70 -0.12 o 691 0.53 Yes Yes
2008HV4 O C H 2008-06-01.19039 1.000E-05 14:38:51.800 1.500E-01 0.500 F 0.074 0.489 -01° 15' 37.30" 1.000E-01 0.500 F 0.128 -0.188 21.2 V 0.70 0.50 o 691 1.06 Yes Yes
2008LA O C 2008-06-01.19298 1.000E-05 14:35:58.150 1.500E-01 0.500 F 0.099 -0.708 -03° 16' 25.80" 1.000E-01 0.500 F 0.060 0.759 21.2 V 0.70 0.32 o 691 2.10 Yes Yes

[1-200] [201-400] [401-600] [601-800] [801-1000] [1001-1200] [1201-1400] [1401-1600] [1601-1800] [1801-2000] [2001-2200] [2201-2400] [2401-2600] [2601-2800] [2801-3000] [3001-3200] [3201-3400] [3401-3600] [3601-3800] [3801-4000] [4001-4200] [4201-4400] [4401-4600] [4601-4800] [4801-5000] [5001-5200] [5201-5400] [5401-5600] [5601-5800] [5801-6000] [6001-6200] [6201-6400] [6401-6600] [6601-6800] [6801-7000] [7001-7200] [7201-7400] [7401-7600] [7601-7800] [7801-8000] [8001-8200] [8201-8400] [8401-8600] [8601-8800] [8801-9000] [9001-9200] [9201-9400] [9401-9600] [9601-9800] [9801-10000] [10001-10200] [10201-10400] [10401-10600] [10601-10800] [10801-11000] [11001-11200] [11201-11400] [11401-11600] [11601-11800] [11801-12000] [12001-12200] [12201-12400] [12401-12600] [12601-12800] [12801-13000] [13001-13200] [13201-13400] [13401-13600] [13601-13800] [13801-14000] [14001-14200] [14201-14400] [14401-14600] [14601-14800] [14801-15000] [15001-15200] [15201-15400] [15401-15600] [15601-15800] [15801-16000] [16001-16200] [16201-16400] [16401-16600] [16601-16800] [16801-17000] [17001-17200] [17201-17400] [17401-17600] [17601-17800] [17801-18000] [18001-18200] [18201-18400] [18401-18600] [18601-18800] [18801-19000] [19001-19200] [19201-19400] [19401-19600] [19601-19800] [19801-20000] [20001-20200] [20201-20400] [20401-20600] [20601-20800] [20801-21000] [21001-21200] [21201-21400] [21401-21600] [21601-21800] [21801-22000] [22001-22200] [22201-22400] [22401-22600] [22601-22800] [22801-23000] [23001-23200] [23201-23400] [23401-23600] [23601-23800] [23801-24000] [24001-24200] [24201-24400] [24401-24600] [24601-24800] [24801-25000] [25001-25200] [25201-25400] [25401-25600] [25601-25800] [25801-26000] [26001-26200] [26201-26400] [26401-26600] [26601-26800] [26801-27000] [27001-27200] [27201-27400] [27401-27600] [27601-27800] [27801-28000] [28001-28200] [28201-28400] [28401-28600] [28601-28800] [28801-29000] [29001-29200] [29201-29400] [29401-29600] [29601-29800] [29801-30000] [30001-30200] [30201-30400] [30401-30600] [30601-30800] [30801-31000] [31001-31200] [31201-31400] [31401-31600] [31601-31800] [31801-32000] [32001-32200] [32201-32400] [32401-32600] [32601-32800] [32801-33000] [33001-33200] [33201-33400] [33401-33600] [33601-33800] [33801-34000] [34001-34200] [34201-34400] [34401-34600] [34601-34800] [34801-35000] [35001-35200] [35201-35400] [35401-35600] [35601-35800] [35801-36000] [36001-36200] [36201-36400] [36401-36600] [36601-36800] [36801-37000] [37001-37200] [37201-37400] [37401-37600] [37601-37800] [37801-38000] [38001-38200] [38201-38400] [38401-38600] [38601-38800] [38801-39000] [39001-39200] [39201-39400] [39401-39600] [39601-39800] [39801-40000] [40001-40200] [40201-40400] [40401-40600] [40601-40800] [40801-41000] [41001-41200] [41201-41400] [41401-41600] [41601-41800] [41801-42000] [42001-42200] [42201-42400] [42401-42600] [42601-42800] [42801-43000] [43001-43200] [43201-43400] [43401-43600] [43601-43800] [43801-44000] [44001-44200] [44201-44400] [44401-44600] [44601-44800] [44801-45000] [45001-45200] [45201-45400] [45401-45600] [45601-45800] [45801-46000] [46001-46200] [46201-46400] [46401-46600] [46601-46800] [46801-47000] [47001-47200] [47201-47400] [47401-47600] [47601-47800] [47801-48000] [48001-48200] [48201-48400] [48401-48600] [48601-48800] [48801-49000] [49001-49200] [49201-49400] [49401-49600] [49601-49800] [49801-50000] [50001-50200] [50201-50388]